Time;durP1;ratioP1;P1;durP2;ratioP2;P2;SDS_P1;SDS_P2;PMS_P1;PMS_P2;Temp;Humidity;BMP_temperature;BMP_pressure;BME280_temperature;BME280_humidity;BME280_pressure;Samples;Min_cycle;Max_cycle;Signal;HPM_P1;HPM_P2
2022/03/28 00:01:00;;;;;;;31.83;13.32;;;;;;;10.35;79.02;102264.28;5072946;28;20420;-71
2022/03/28 00:03:26;;;;;;;33.55;13.00;;;;;;;10.34;78.90;102273.75;5079536;28;20127;-72
2022/03/28 00:05:53;;;;;;;32.70;14.18;;;;;;;10.26;80.21;102257.34;5081873;28;20067;-72
2022/03/28 00:08:20;;;;;;;32.83;13.00;;;;;;;10.23;80.09;102266.34;5077528;28;20059;-70
2022/03/28 00:10:46;;;;;;;34.88;13.32;;;;;;;10.21;80.27;102252.06;5081040;28;20142;-70
2022/03/28 00:13:13;;;;;;;37.08;13.88;;;;;;;10.19;80.97;102257.94;5080745;28;20076;-70
2022/03/28 00:15:39;;;;;;;33.20;14.43;;;;;;;10.12;80.73;102254.19;5068258;28;20052;-70
2022/03/28 00:18:08;;;;;;;31.13;13.43;;;;;;;10.08;82.63;102254.13;5081692;28;20067;-70
2022/03/28 00:20:35;;;;;;;34.90;14.68;;;;;;;10.09;81.52;102257.66;5085490;28;20489;-71
2022/03/28 00:23:01;;;;;;;29.27;12.95;;;;;;;10.03;81.07;102254.34;5078042;28;20052;-71
2022/03/28 00:25:28;;;;;;;31.10;13.25;;;;;;;9.97;81.81;102247.50;5082147;28;20506;-70
2022/03/28 00:27:55;;;;;;;32.65;13.43;;;;;;;9.96;81.77;102245.84;5072630;28;20584;-70
2022/03/28 00:30:21;;;;;;;34.15;13.40;;;;;;;9.95;82.34;102235.16;5078506;28;20488;-70
2022/03/28 00:32:48;;;;;;;34.03;14.25;;;;;;;9.93;82.51;102227.22;5068602;28;20056;-70
2022/03/28 00:35:15;;;;;;;36.40;12.85;;;;;;;9.90;82.42;102232.66;5071065;28;20123;-70
2022/03/28 00:37:41;;;;;;;34.67;14.30;;;;;;;9.81;84.49;102226.50;5067408;28;20095;-71
2022/03/28 00:40:11;;;;;;;33.78;13.88;;;;;;;9.76;83.87;102227.56;5071301;28;20052;-70
2022/03/28 00:42:38;;;;;;;33.92;13.68;;;;;;;9.74;83.43;102227.13;5066153;28;20094;-70
2022/03/28 00:45:06;;;;;;;33.80;14.25;;;;;;;9.69;82.85;102229.34;5072280;28;20093;-72
2022/03/28 00:47:33;;;;;;;37.70;14.18;;;;;;;9.69;84.15;102230.13;5078368;28;20044;-69
2022/03/28 00:50:00;;;;;;;33.50;13.32;;;;;;;9.68;84.17;102216.69;5078581;28;20411;-69
2022/03/28 00:52:27;;;;;;;31.80;13.07;;;;;;;9.63;83.95;102212.25;5075512;28;20074;-70
2022/03/28 00:54:55;;;;;;;37.28;14.88;;;;;;;9.62;85.41;102216.13;5072338;28;20131;-69
2022/03/28 00:57:22;;;;;;;34.70;14.13;;;;;;;9.58;86.02;102206.97;5071383;28;20052;-69
2022/03/28 00:59:48;;;;;;;34.00;14.02;;;;;;;9.57;85.65;102219.19;5069767;28;20718;-69
2022/03/28 01:02:15;;;;;;;31.90;14.20;;;;;;;9.53;85.93;102203.66;5075596;28;20526;-71
2022/03/28 01:04:42;;;;;;;37.28;14.80;;;;;;;9.49;86.48;102206.31;5066410;28;20056;-70
2022/03/28 01:07:08;;;;;;;37.17;13.60;;;;;;;9.44;87.83;102200.25;5077033;28;20443;-69
2022/03/28 01:09:35;;;;;;;38.63;14.27;;;;;;;9.42;87.30;102197.84;5075241;28;20083;-69
2022/03/28 01:12:03;;;;;;;34.67;14.20;;;;;;;9.37;87.44;102197.28;5076410;28;20166;-70
2022/03/28 01:14:30;;;;;;;34.60;15.20;;;;;;;9.36;87.74;102203.97;5072962;28;20105;-72
2022/03/28 01:19:41;;;;;;;34.13;14.07;;;;;;;9.30;88.10;102189.63;5084724;28;20642;-70
2022/03/28 01:22:08;;;;;;;37.20;14.05;;;;;;;9.30;88.05;102189.63;5067359;28;20127;-73
2022/03/28 01:24:35;;;;;;;35.40;14.40;;;;;;;9.30;87.89;102181.34;5071578;28;20511;-70
2022/03/28 01:27:02;;;;;;;35.65;14.00;;;;;;;9.26;87.83;102188.72;5084711;28;20134;-70
2022/03/28 01:29:28;;;;;;;40.38;15.30;;;;;;;9.21;88.49;102185.44;5070434;28;20054;-71
2022/03/28 01:31:55;;;;;;;34.78;14.82;;;;;;;9.21;88.00;102186.22;5078820;28;20135;-70
2022/03/28 01:34:21;;;;;;;38.22;15.73;;;;;;;9.17;88.63;102173.44;5071717;28;20055;-71
2022/03/28 01:36:48;;;;;;;38.45;15.18;;;;;;;9.12;89.43;102174.53;5079468;28;20058;-71
2022/03/28 01:39:16;;;;;;;36.50;15.23;;;;;;;9.12;88.91;102171.78;5074454;28;20121;-70
2022/03/28 01:41:42;;;;;;;37.00;14.25;;;;;;;9.08;88.70;102168.09;5075832;28;20046;-70
2022/03/28 01:44:09;;;;;;;36.05;15.25;;;;;;;9.05;89.49;102165.25;5083925;28;20485;-73
2022/03/28 01:46:53;;;;;;;37.13;14.63;;;;;;;8.98;90.04;102165.81;5094843;28;20093;-70
2022/03/28 01:49:20;;;;;;;32.30;14.27;;;;;;;8.98;90.14;102159.53;5085725;28;20052;-70
2022/03/28 01:51:49;;;;;;;33.78;13.73;;;;;;;8.98;89.03;102154.78;5080062;28;20135;-69
2022/03/28 01:54:17;;;;;;;36.97;15.57;;;;;;;8.95;89.72;102158.28;5070227;28;20040;-70
2022/03/28 01:56:44;;;;;;;37.40;15.23;;;;;;;8.92;90.15;102153.44;5071464;28;20048;-71
2022/03/28 01:59:11;;;;;;;39.72;15.40;;;;;;;8.89;90.08;102142.28;5070869;28;20126;-70
2022/03/28 02:01:37;;;;;;;36.35;14.00;;;;;;;8.88;89.98;102146.22;5076333;28;20154;-71
2022/03/28 02:04:05;;;;;;;38.17;15.25;;;;;;;8.83;90.60;102136.22;5075222;28;20063;-71
2022/03/28 02:06:34;;;;;;;35.28;14.77;;;;;;;8.79;91.17;102140.03;5070652;28;20048;-71
2022/03/28 02:09:01;;;;;;;37.88;15.45;;;;;;;8.73;90.98;102142.25;5089398;28;20056;-71
2022/03/28 02:11:29;;;;;;;35.88;14.75;;;;;;;8.69;91.33;102141.34;5070123;28;20049;-70
2022/03/28 02:13:55;;;;;;;37.30;15.90;;;;;;;8.62;92.56;102127.34;5070371;28;20058;-70
2022/03/28 02:16:22;;;;;;;37.17;14.55;;;;;;;8.61;92.48;102138.72;5070736;28;20544;-72
2022/03/28 02:18:49;;;;;;;38.42;14.63;;;;;;;8.60;92.56;102128.84;5071068;28;20060;-70
2022/03/28 02:21:15;;;;;;;38.13;15.32;;;;;;;8.59;93.23;102135.50;5080168;28;20138;-70
2022/03/28 02:23:42;;;;;;;32.97;13.50;;;;;;;8.51;93.83;102128.19;5072433;28;20054;-70
2022/03/28 02:26:08;;;;;;;40.50;15.88;;;;;;;8.48;92.90;102120.59;5076811;28;20124;-72
2022/03/28 02:28:35;;;;;;;35.38;14.77;;;;;;;8.49;93.11;102116.69;5072807;28;20148;-71
2022/03/28 02:31:03;;;;;;;41.70;15.95;;;;;;;8.47;92.47;102117.03;5070384;28;20135;-71
2022/03/28 02:33:29;;;;;;;38.17;15.57;;;;;;;8.43;93.73;102120.88;5069677;28;20568;-70
2022/03/28 02:35:56;;;;;;;43.13;16.65;;;;;;;8.38;94.71;102116.38;5072912;28;20045;-70
2022/03/28 02:38:23;;;;;;;41.63;16.58;;;;;;;8.32;94.16;102105.94;5089216;28;20052;-70
2022/03/28 02:40:50;;;;;;;39.33;15.90;;;;;;;8.33;95.48;102110.31;5089714;28;20131;-70
2022/03/28 02:43:16;;;;;;;38.53;15.82;;;;;;;8.33;94.66;102110.31;5089650;28;20530;-70
2022/03/28 02:45:43;;;;;;;42.17;16.75;;;;;;;8.30;95.28;102109.03;5078197;28;20086;-70
2022/03/28 02:48:09;;;;;;;41.35;14.73;;;;;;;8.32;94.14;102114.19;5079735;28;20106;-71
2022/03/28 02:50:36;;;;;;;39.78;15.05;;;;;;;8.31;94.93;102105.16;5083226;28;20049;-70
2022/03/28 02:53:02;;;;;;;40.80;16.13;;;;;;;8.29;94.56;102098.34;5069915;28;20056;-70
2022/03/28 02:55:29;;;;;;;43.28;16.38;;;;;;;8.29;95.02;102101.09;5069299;28;20050;-70
2022/03/28 02:57:55;;;;;;;39.85;15.48;;;;;;;8.24;96.18;102088.38;5070005;28;20435;-70
2022/03/28 03:00:22;;;;;;;44.15;15.95;;;;;;;8.20;96.23;102090.19;5083086;28;20078;-70
2022/03/28 03:02:48;;;;;;;41.75;15.90;;;;;;;8.18;96.72;102084.22;5085785;28;20143;-71
2022/03/28 03:05:15;;;;;;;39.28;15.77;;;;;;;8.15;96.64;102076.66;5076312;28;20134;-71
2022/03/28 03:07:42;;;;;;;42.03;15.85;;;;;;;8.18;96.46;102080.66;5081287;28;20053;-71
2022/03/28 03:10:09;;;;;;;39.97;16.25;;;;;;;8.16;96.13;102081.00;5094758;28;20056;-69
2022/03/28 03:12:36;;;;;;;41.00;16.45;;;;;;;8.15;96.07;102078.59;5081042;28;20139;-69
2022/03/28 03:15:03;;;;;;;41.00;16.27;;;;;;;8.13;96.96;102078.94;5073032;28;20536;-70
2022/03/28 03:17:29;;;;;;;42.35;15.50;;;;;;;8.13;96.75;102072.66;5077205;28;20080;-70
2022/03/28 03:19:56;;;;;;;41.65;16.63;;;;;;;8.09;96.21;102067.00;5069942;28;20051;-73
2022/03/28 03:22:23;;;;;;;41.67;17.23;;;;;;;8.07;96.81;102068.50;5068573;28;20151;-70
2022/03/28 03:24:50;;;;;;;48.13;17.67;;;;;;;8.02;98.24;102056.59;5079229;28;20051;-69
2022/03/28 03:27:16;;;;;;;42.17;17.90;;;;;;;8.04;97.54;102067.25;5069704;28;20136;-73
2022/03/28 03:29:43;;;;;;;39.00;15.57;;;;;;;8.01;98.16;102057.72;5072993;28;20436;-71
2022/03/28 03:32:10;;;;;;;39.45;16.58;;;;;;;8.01;98.85;102059.69;5073116;28;20051;-71
2022/03/28 03:34:36;;;;;;;43.67;17.02;;;;;;;7.99;99.50;102065.53;5089251;28;20086;-70
2022/03/28 03:37:04;;;;;;;44.22;16.55;;;;;;;7.94;99.63;102063.00;5089795;28;20087;-69
2022/03/28 03:39:30;;;;;;;45.95;16.20;;;;;;;7.91;99.43;102060.94;5089472;28;20671;-69
2022/03/28 03:41:58;;;;;;;47.20;17.75;;;;;;;7.93;98.75;102063.34;5088626;28;20155;-71
2022/03/28 03:44:24;;;;;;;44.90;16.38;;;;;;;7.98;99.86;102057.63;5085842;28;20122;-71
2022/03/28 03:46:51;;;;;;;44.03;16.17;;;;;;;7.95;99.63;102052.78;5077634;28;20040;-70
2022/03/28 03:49:17;;;;;;;46.60;16.27;;;;;;;7.92;99.15;102046.03;5075987;28;20110;-68
2022/03/28 03:51:44;;;;;;;48.42;17.98;;;;;;;7.91;100.00;102044.41;5084975;28;20054;-70
2022/03/28 03:54:12;;;;;;;44.88;16.77;;;;;;;7.89;99.98;102054.19;5071722;28;20057;-71
2022/03/28 03:56:38;;;;;;;45.90;18.08;;;;;;;7.84;99.35;102051.69;5067504;28;20751;-69
2022/03/28 03:59:05;;;;;;;43.83;17.52;;;;;;;7.81;100.00;102049.59;5078082;28;20059;-70
2022/03/28 04:01:32;;;;;;;42.75;15.95;;;;;;;7.81;100.00;102047.66;5078389;28;20052;-70
2022/03/28 04:03:59;;;;;;;48.88;17.15;;;;;;;7.77;100.00;102048.69;5081258;28;20059;-73
2022/03/28 04:06:25;;;;;;;37.95;15.57;;;;;;;7.75;99.60;102051.81;5066286;28;20071;-71
2022/03/28 04:08:52;;;;;;;42.80;16.17;;;;;;;7.72;100.00;102048.91;5094344;28;20154;-71
2022/03/28 04:11:18;;;;;;;40.85;16.88;;;;;;;7.74;99.69;102049.38;5072005;28;20054;-69
2022/03/28 04:13:45;;;;;;;42.45;17.42;;;;;;;7.70;99.98;102045.72;5067106;28;20052;-71
2022/03/28 04:16:12;;;;;;;45.97;18.60;;;;;;;7.70;99.38;102042.97;5068563;28;20129;-70
2022/03/28 04:18:38;;;;;;;41.30;16.55;;;;;;;7.70;99.82;102038.25;5069478;28;20052;-72
2022/03/28 04:21:05;;;;;;;41.83;17.85;;;;;;;7.67;100.00;102038.16;5067267;28;20079;-72
2022/03/28 04:23:31;;;;;;;45.03;17.38;;;;;;;7.66;100.00;102031.81;5077345;28;20079;-70
2022/03/28 04:25:58;;;;;;;48.08;19.60;;;;;;;7.60;100.00;102026.91;5081588;28;20095;-69
2022/03/28 04:28:24;;;;;;;48.92;17.02;;;;;;;7.62;100.00;102035.63;5077108;28;20135;-70
2022/03/28 04:30:51;;;;;;;44.95;18.08;;;;;;;7.57;100.00;102033.88;5070525;28;20452;-69
2022/03/28 04:33:19;;;;;;;38.00;16.58;;;;;;;7.56;100.00;102028.75;5067908;28;20421;-71
2022/03/28 04:35:46;;;;;;;45.42;16.50;;;;;;;7.57;100.00;102033.09;5068785;28;20045;-70
2022/03/28 04:38:12;;;;;;;44.60;16.60;;;;;;;7.55;100.00;102032.63;5068638;28;20512;-70
2022/03/28 04:40:40;;;;;;;46.35;17.42;;;;;;;7.51;100.00;102029.78;5067176;28;20059;-70
2022/03/28 04:43:08;;;;;;;39.70;16.02;;;;;;;7.45;100.00;102025.66;5067642;28;20052;-71
2022/03/28 04:45:34;;;;;;;43.42;16.15;;;;;;;7.37;100.00;102045.03;5076306;28;20052;-71
2022/03/28 04:48:01;;;;;;;44.45;16.63;;;;;;;7.31;100.00;102041.72;5074257;28;20048;-72
2022/03/28 04:50:29;;;;;;;46.47;16.00;;;;;;;7.34;100.00;102042.97;5083556;28;20097;-70
2022/03/28 04:52:55;;;;;;;40.33;16.33;;;;;;;7.38;100.00;102041.13;5067536;28;20049;-70
2022/03/28 04:55:27;;;;;;;46.00;17.48;;;;;;;7.39;100.00;102049.03;5067715;28;20485;-71
2022/03/28 04:57:54;;;;;;;44.28;16.08;;;;;;;7.41;100.00;102046.75;5075011;28;20056;-70
2022/03/28 05:00:20;;;;;;;49.85;18.50;;;;;;;7.43;100.00;102046.44;5074356;28;20043;-71
2022/03/28 05:02:47;;;;;;;51.75;18.98;;;;;;;7.42;100.00;102048.38;5079119;28;20493;-70
2022/03/28 05:05:13;;;;;;;50.58;20.10;;;;;;;7.39;100.00;102046.28;5077025;28;20068;-71
2022/03/28 05:07:40;;;;;;;41.90;16.48;;;;;;;7.40;100.00;102041.59;5071290;28;20127;-71
2022/03/28 05:10:07;;;;;;;47.20;17.70;;;;;;;7.40;100.00;102038.84;5066561;28;20111;-70
2022/03/28 05:12:34;;;;;;;47.05;18.48;;;;;;;7.40;100.00;102033.34;5073866;28;20143;-70
2022/03/28 05:15:05;;;;;;;48.67;18.13;;;;;;;7.39;100.00;102038.03;5087717;28;20496;-70
2022/03/28 05:17:32;;;;;;;42.92;16.83;;;;;;;7.37;100.00;102029.34;5087637;28;20044;-72
2022/03/28 05:20:00;;;;;;;46.20;18.10;;;;;;;7.30;100.00;102033.78;5087208;28;20062;-71
2022/03/28 05:22:26;;;;;;;46.65;18.20;;;;;;;7.28;100.00;102020.38;5075743;28;20071;-70
2022/03/28 05:24:54;;;;;;;47.05;17.58;;;;;;;7.29;100.00;102016.47;5080479;28;20064;-72
2022/03/28 05:27:21;;;;;;;44.88;17.60;;;;;;;7.19;100.00;102018.88;5070021;28;20056;-72
2022/03/28 05:29:48;;;;;;;45.03;18.63;;;;;;;7.22;100.00;102030.00;5071939;28;20052;-70
2022/03/28 05:32:18;;;;;;;59.83;19.00;;;;;;;7.27;100.00;102026.22;5073632;28;20054;-70
2022/03/28 05:34:45;;;;;;;52.92;18.48;;;;;;;7.30;100.00;102018.06;5070322;28;20052;-71
2022/03/28 05:37:17;;;;;;;46.80;19.15;;;;;;;7.33;100.00;102027.59;5075207;28;20055;-70
2022/03/28 05:39:45;;;;;;;44.92;17.73;;;;;;;7.34;100.00;102035.53;5066672;28;20056;-71
2022/03/28 05:42:12;;;;;;;59.00;20.98;;;;;;;7.32;100.00;102028.72;5065396;28;20489;-72
2022/03/28 05:44:40;;;;;;;47.97;18.52;;;;;;;7.30;100.00;102022.78;5078103;28;20048;-71
2022/03/28 05:47:07;;;;;;;45.35;20.23;;;;;;;7.34;100.00;102023.69;5074138;28;20140;-69
2022/03/28 05:49:34;;;;;;;50.97;17.95;;;;;;;7.33;100.00;102017.38;5074003;28;20129;-73
2022/03/28 05:52:00;;;;;;;46.33;18.52;;;;;;;7.34;100.00;102020.94;5086292;28;20131;-69
2022/03/28 05:54:27;;;;;;;49.10;18.55;;;;;;;7.36;100.00;102021.41;5066868;28;20230;-71
2022/03/28 05:56:55;;;;;;;52.25;18.88;;;;;;;7.34;100.00;102021.75;5068408;28;20641;-70
2022/03/28 05:59:22;;;;;;;45.70;17.42;;;;;;;7.34;100.00;102023.69;5073160;28;20048;-71
2022/03/28 06:01:48;;;;;;;41.97;16.25;;;;;;;7.30;100.00;102007.03;5082016;28;20054;-70
2022/03/28 06:04:15;;;;;;;45.63;16.00;;;;;;;7.35;100.00;102004.06;5080262;28;20439;-70
2022/03/28 06:06:42;;;;;;;44.60;17.42;;;;;;;7.34;100.00;102008.00;5066058;28;20055;-70
2022/03/28 06:09:08;;;;;;;54.40;18.45;;;;;;;7.37;100.00;102007.31;5068552;28;20516;-70
2022/03/28 06:11:35;;;;;;;50.22;19.73;;;;;;;7.39;100.00;102004.22;5075748;28;20131;-71
2022/03/28 06:14:03;;;;;;;51.70;19.58;;;;;;;7.41;100.00;102010.16;5074379;28;20053;-70
2022/03/28 06:16:30;;;;;;;48.90;20.42;;;;;;;7.39;100.00;102004.22;5066136;28;20049;-71
2022/03/28 06:18:57;;;;;;;50.90;19.20;;;;;;;7.46;100.00;102009.94;5066969;28;20052;-70
2022/03/28 06:21:24;;;;;;;51.88;18.85;;;;;;;7.51;100.00;101998.66;5074579;28;20828;-68
2022/03/28 06:23:50;;;;;;;56.03;19.73;;;;;;;7.59;100.00;102006.81;5073194;28;20102;-69
2022/03/28 06:26:17;;;;;;;54.97;20.92;;;;;;;7.65;100.00;102012.88;5071739;28;20044;-71
2022/03/28 06:28:46;;;;;;;54.33;20.17;;;;;;;7.73;100.00;102006.47;5078818;28;20059;-69
2022/03/28 06:31:13;;;;;;;56.00;23.45;;;;;;;7.86;100.00;102008.03;5074050;28;20496;-70
2022/03/28 06:33:41;;;;;;;58.67;22.35;;;;;;;7.97;100.00;102011.91;5077892;28;20492;-69
2022/03/28 06:36:08;;;;;;;49.67;20.67;;;;;;;8.04;100.00;102007.41;5079742;28;20120;-72
2022/03/28 06:38:35;;;;;;;60.00;23.27;;;;;;;8.09;100.00;102000.84;5076607;28;20143;-70
2022/03/28 06:41:02;;;;;;;59.88;24.27;;;;;;;8.18;100.00;101997.94;5075581;28;20101;-70
2022/03/28 06:43:29;;;;;;;61.33;24.20;;;;;;;8.29;100.00;101996.31;5087930;28;20136;-70
2022/03/28 06:45:56;;;;;;;58.72;22.20;;;;;;;8.38;100.00;101995.03;5081796;28;20135;-70
2022/03/28 06:48:22;;;;;;;56.92;22.27;;;;;;;8.47;100.00;102001.19;5077055;28;20058;-70
2022/03/28 06:51:00;;;;;;;64.10;26.02;;;;;;;8.57;100.00;102000.66;5077988;28;20044;-70
2022/03/28 06:53:26;;;;;;;61.90;25.92;;;;;;;8.67;100.00;102004.88;5079792;28;20052;-70
2022/03/28 06:55:53;;;;;;;57.42;25.60;;;;;;;8.74;100.00;102011.38;5073405;28;20048;-70
2022/03/28 06:58:20;;;;;;;67.88;26.10;;;;;;;8.82;100.00;101996.63;5081515;28;20130;-71
2022/03/28 07:00:46;;;;;;;61.17;24.00;;;;;;;8.90;100.00;102003.94;5085680;28;20522;-72
2022/03/28 07:03:13;;;;;;;64.47;23.67;;;;;;;9.02;100.00;102005.81;5085237;28;20079;-70
2022/03/28 07:05:44;;;;;;;57.10;24.13;;;;;;;9.10;100.00;101989.06;5072362;28;20076;-72
2022/03/28 07:08:12;;;;;;;57.35;24.38;;;;;;;9.16;100.00;101990.41;5089935;28;20052;-71
2022/03/28 07:10:40;;;;;;;64.60;24.70;;;;;;;9.28;100.00;101998.56;5071262;28;20090;-71
2022/03/28 07:13:06;;;;;;;58.22;24.50;;;;;;;9.37;100.00;101990.09;5068098;28;20545;-73
2022/03/28 07:15:33;;;;;;;61.33;25.20;;;;;;;9.44;100.00;101984.75;5083530;28;20139;-72
2022/03/28 07:18:05;;;;;;;60.38;25.77;;;;;;;9.54;100.00;101985.00;5075038;28;20083;-72
2022/03/28 07:20:32;;;;;;;59.78;25.95;;;;;;;9.64;100.00;101989.97;5076176;28;20052;-72
2022/03/28 07:22:59;;;;;;;63.65;25.52;;;;;;;9.70;100.00;101984.97;5085820;28;20142;-72
2022/03/28 07:25:28;;;;;;;61.45;26.65;;;;;;;9.80;100.00;101981.63;5074771;28;20058;-72
2022/03/28 07:27:55;;;;;;;69.40;24.98;;;;;;;9.86;100.00;101975.44;5073915;28;20512;-73
2022/03/28 07:30:23;;;;;;;60.03;26.35;;;;;;;9.98;100.00;101969.00;5068009;28;20052;-72
2022/03/28 07:32:53;;;;;;;58.25;25.00;;;;;;;10.10;100.00;101963.38;5068493;28;20573;-72
2022/03/28 07:35:20;;;;;;;69.82;26.48;;;;;;;10.17;100.00;101964.28;5069664;28;20083;-72
2022/03/28 07:37:47;;;;;;;61.33;26.75;;;;;;;10.27;100.00;101960.94;5067379;28;20526;-72
2022/03/28 07:40:15;;;;;;;59.42;25.20;;;;;;;10.38;100.00;101964.72;5073868;28;20326;-72
2022/03/28 07:42:42;;;;;;;55.40;23.83;;;;;;;10.41;100.00;101966.78;5071941;28;20063;-72
2022/03/28 07:45:10;;;;;;;64.40;24.42;;;;;;;10.45;100.00;101959.34;5075960;28;20044;-72
2022/03/28 07:47:37;;;;;;;58.33;24.10;;;;;;;10.57;100.00;101961.13;5069886;28;20117;-73
2022/03/28 07:50:04;;;;;;;60.67;25.40;;;;;;;10.71;100.00;101955.03;5081724;28;20127;-72
2022/03/28 07:52:32;;;;;;;65.15;27.65;;;;;;;10.79;100.00;101959.53;5079525;28;20458;-70
2022/03/28 07:55:00;;;;;;;57.00;24.85;;;;;;;10.83;100.00;101954.88;5077686;28;20044;-67
2022/03/28 07:57:27;;;;;;;63.63;24.42;;;;;;;10.98;100.00;101956.69;5069842;28;20626;-67
2022/03/28 07:59:54;;;;;;;59.45;26.75;;;;;;;11.13;100.00;101953.00;5082801;28;20117;-68
2022/03/28 08:02:41;;;;;;;66.72;27.02;;;;;;;11.27;100.00;101944.91;5081814;28;20048;-70
2022/03/28 08:05:09;;;;;;;63.13;25.75;;;;;;;11.40;100.00;101949.06;5069973;28;20045;-71
2022/03/28 08:07:36;;;;;;;60.03;25.38;;;;;;;11.51;100.00;101953.59;5078118;28;20047;-72
2022/03/28 08:10:09;;;;;;;57.13;23.80;;;;;;;11.63;100.00;101947.06;5093858;28;20503;-71
2022/03/28 08:12:37;;;;;;;65.30;26.55;;;;;;;11.76;99.69;101952.00;5070745;28;20094;-71
2022/03/28 08:15:08;;;;;;;61.97;25.67;;;;;;;11.88;98.98;101937.91;5069180;28;20060;-72
2022/03/28 08:17:36;;;;;;;54.22;22.52;;;;;;;12.04;98.20;101940.47;5071051;28;20139;-72
2022/03/28 08:20:06;;;;;;;56.28;26.10;;;;;;;12.13;97.00;101935.44;5072042;28;20103;-71
2022/03/28 08:22:44;;;;;;;54.47;24.75;;;;;;;12.28;96.24;101934.41;5068600;28;20131;-70
2022/03/28 08:25:11;;;;;;;55.92;25.50;;;;;;;12.43;95.95;101933.41;5081108;28;20052;-72
2022/03/28 08:27:37;;;;;;;57.63;25.35;;;;;;;12.57;94.89;101914.91;5082353;28;20541;-70
2022/03/28 08:30:05;;;;;;;57.17;22.98;;;;;;;12.65;93.46;101927.69;5070184;28;20084;-71
2022/03/28 08:32:33;;;;;;;58.90;25.02;;;;;;;12.75;93.15;101926.97;5067937;28;20059;-72
2022/03/28 08:35:00;;;;;;;51.60;24.05;;;;;;;12.90;92.85;101923.13;5084527;28;20511;-71
2022/03/28 08:37:27;;;;;;;53.60;24.88;;;;;;;13.02;92.37;101920.09;5075872;28;20494;-72
2022/03/28 08:39:57;;;;;;;49.72;21.50;;;;;;;13.19;91.70;101917.84;5074407;28;20090;-72
2022/03/28 08:42:25;;;;;;;57.58;24.05;;;;;;;13.32;90.90;101913.56;5076071;28;20048;-71
2022/03/28 08:44:52;;;;;;;50.53;24.77;;;;;;;13.37;89.75;101916.78;5073699;28;20147;-70
2022/03/28 08:47:21;;;;;;;51.83;23.67;;;;;;;13.50;89.48;101909.69;5078391;28;20083;-74
2022/03/28 08:49:49;;;;;;;51.95;23.05;;;;;;;13.63;88.74;101912.97;5081795;28;20055;-72
2022/03/28 08:52:16;;;;;;;53.03;25.35;;;;;;;13.81;89.02;101908.28;5077495;28;20136;-72
2022/03/28 08:54:44;;;;;;;49.67;22.80;;;;;;;13.90;88.11;101909.50;5071935;28;20508;-71
2022/03/28 08:57:13;;;;;;;49.83;24.92;;;;;;;13.96;86.27;101910.72;5065947;28;20478;-72
2022/03/28 08:59:39;;;;;;;52.10;23.65;;;;;;;14.01;86.32;101904.00;5070683;28;20087;-72
2022/03/28 09:02:25;;;;;;;46.80;21.60;;;;;;;14.16;85.87;101903.66;5059368;28;20051;-73
2022/03/28 09:04:55;;;;;;;48.83;23.48;;;;;;;14.35;85.03;101908.09;5062276;28;20440;-75
2022/03/28 09:07:26;;;;;;;44.80;21.60;;;;;;;14.53;84.89;101911.72;5077769;28;20039;-72
2022/03/28 09:09:57;;;;;;;47.67;21.92;;;;;;;14.67;83.82;101901.38;5070320;28;20056;-71
2022/03/28 09:12:24;;;;;;;50.80;22.95;;;;;;;14.83;83.23;101896.22;5067266;28;20398;-72
2022/03/28 09:15:03;;;;;;;50.65;24.30;;;;;;;15.00;82.17;101897.41;5075104;28;20142;-73
2022/03/28 09:17:31;;;;;;;50.90;22.10;;;;;;;15.12;80.83;101892.22;5067721;28;20151;-70
2022/03/28 09:20:02;;;;;;;44.35;20.05;;;;;;;15.12;78.51;101892.22;5067027;28;20059;-73
2022/03/28 09:22:41;;;;;;;58.60;24.65;;;;;;;15.26;79.22;101888.63;5071359;28;20080;-74
2022/03/28 09:25:11;;;;;;;47.70;23.50;;;;;;;15.43;79.53;101888.59;5071456;28;20047;-71
2022/03/28 09:27:44;;;;;;;28.33;12.70;;;;;;;15.36;77.17;101888.63;5072465;28;20044;-71
2022/03/28 09:30:12;;;;;;;51.53;24.85;;;;;;;15.48;77.70;101881.06;5068495;28;20052;-71
2022/03/28 09:32:40;;;;;;;53.45;24.92;;;;;;;15.70;78.75;101868.59;5072565;28;20059;-69
2022/03/28 09:35:21;;;;;;;43.20;22.23;;;;;;;15.89;76.64;101877.28;5068001;28;20092;-69
2022/03/28 09:38:02;;;;;;;46.78;24.45;;;;;;;15.93;74.86;101869.69;5075370;28;20286;-68
2022/03/28 09:40:37;;;;;;;51.20;22.52;;;;;;;16.15;75.50;101873.16;5077483;28;20048;-74
2022/03/28 09:43:14;;;;;;;51.47;23.65;;;;;;;16.20;73.18;101864.38;5074626;28;20048;-74
2022/03/28 09:45:42;;;;;;;48.58;21.95;;;;;;;16.46;74.04;101867.41;5071937;28;20067;-71
2022/03/28 09:48:15;;;;;;;52.88;24.77;;;;;;;16.75;73.09;101865.22;5070006;28;20809;-71
2022/03/28 09:50:46;;;;;;;47.90;24.85;;;;;;;16.95;72.15;101864.25;5068374;28;20430;-72
2022/03/28 09:53:21;;;;;;;49.40;22.52;;;;;;;16.77;70.06;101862.81;5064841;28;20159;-70
2022/03/28 09:56:14;;;;;;;50.22;24.48;;;;;;;16.92;69.91;101855.88;5079849;28;20051;-72
2022/03/28 09:58:48;;;;;;;53.83;23.83;;;;;;;17.18;70.17;101855.22;5083542;28;20066;-70
2022/03/28 10:01:20;;;;;;;48.00;23.95;;;;;;;17.38;69.20;101853.41;5083625;28;20109;-73
2022/03/28 10:03:50;;;;;;;46.42;23.45;;;;;;;17.61;68.63;101851.56;5067534;28;20511;-70
2022/03/28 10:06:18;;;;;;;45.13;22.77;;;;;;;17.82;68.75;101848.50;5073089;28;20051;-69
2022/03/28 10:08:45;;;;;;;49.63;24.80;;;;;;;17.98;66.08;101845.09;5077839;28;20094;-71
2022/03/28 10:11:16;;;;;;;48.10;23.48;;;;;;;18.15;65.80;101841.25;5072908;28;20047;-71
2022/03/28 10:13:44;;;;;;;47.55;22.65;;;;;;;18.19;62.94;101844.78;5074338;28;20048;-72
2022/03/28 10:16:11;;;;;;;44.65;23.60;;;;;;;18.26;63.87;101836.28;5069801;28;20556;-69
2022/03/28 10:18:40;;;;;;;52.33;24.63;;;;;;;18.37;63.52;101838.94;5072736;28;20052;-72
2022/03/28 10:21:15;;;;;;;43.95;20.05;;;;;;;18.33;59.06;101833.38;5069771;28;20131;-70
2022/03/28 10:23:50;;;;;;;45.72;23.17;;;;;;;18.31;61.01;101832.19;5075580;28;20079;-74
2022/03/28 10:26:20;;;;;;;40.83;21.50;;;;;;;18.31;60.10;101826.59;5072720;28;20060;-72
2022/03/28 10:29:22;;;;;;;43.30;24.27;;;;;;;18.42;60.23;101808.44;5082373;28;20734;-72
2022/03/28 10:31:55;;;;;;;50.45;24.65;;;;;;;18.58;59.70;101811.38;5068589;28;21965;-73
2022/03/28 10:34:43;;;;;;;47.75;23.20;;;;;;;18.65;58.46;101808.47;5069291;28;20140;-70
2022/03/28 10:37:28;;;;;;;44.78;23.88;;;;;;;18.71;57.96;101791.94;5078876;28;20105;-76
2022/03/28 10:40:16;;;;;;;42.85;22.38;;;;;;;18.78;57.51;101786.22;5077318;28;20064;-73
2022/03/28 10:43:17;;;;;;;47.97;25.33;;;;;;;18.92;57.55;101789.56;5073400;28;20067;-73
2022/03/28 10:46:03;;;;;;;47.22;23.00;;;;;;;19.03;57.40;101784.53;5078778;28;20048;-74
2022/03/28 10:48:39;;;;;;;42.97;22.67;;;;;;;19.20;57.70;101783.41;5084689;28;20047;-74
2022/03/28 10:51:05;;;;;;;43.40;22.75;;;;;;;19.36;57.12;101789.13;5081467;28;20151;-73
2022/03/28 10:53:40;;;;;;;43.88;23.42;;;;;;;19.22;55.10;101792.19;5076555;28;20126;-71
2022/03/28 10:56:15;;;;;;;50.60;24.65;;;;;;;19.48;55.66;101782.84;5074601;28;20683;-74
2022/03/28 10:58:44;;;;;;;41.90;19.85;;;;;;;19.69;55.26;101779.59;5082248;28;20075;-70
2022/03/28 11:01:11;;;;;;;51.30;23.67;;;;;;;19.89;53.96;101780.38;5082944;28;20047;-71
2022/03/28 11:03:52;;;;;;;45.10;22.88;;;;;;;19.88;52.12;101766.75;5080720;28;20125;-72
2022/03/28 11:06:41;;;;;;;40.28;21.85;;;;;;;20.00;53.02;101758.44;5072064;28;20635;-74
2022/03/28 11:09:07;;;;;;;46.45;22.80;;;;;;;19.77;52.67;101755.75;5080035;28;20045;-70
2022/03/28 11:11:34;;;;;;;46.90;24.50;;;;;;;19.95;53.47;101753.31;5077825;28;20528;-68
2022/03/28 11:14:05;;;;;;;48.17;25.05;;;;;;;20.20;52.53;101747.13;5068445;28;20048;-71
2022/03/28 11:16:42;;;;;;;47.13;22.70;;;;;;;20.59;51.62;101751.78;5068776;28;20044;-71
2022/03/28 11:19:29;;;;;;;44.35;23.08;;;;;;;20.90;50.39;101750.16;5070513;28;20057;-71
2022/03/28 11:22:05;;;;;;;45.88;22.88;;;;;;;21.02;49.93;101743.81;5069797;28;20406;-71